createdAt,value
2017-08-20T00:00:03.366Z,2
2017-08-20T00:05:02.933Z,2
2017-08-20T00:10:03.470Z,4
2017-08-20T00:15:02.969Z,5
2017-08-20T00:20:03.445Z,4
2017-08-20T00:25:02.874Z,5
2017-08-20T00:30:03.221Z,2
2017-08-20T00:35:02.761Z,3
2017-08-20T00:40:03.244Z,4
2017-08-20T00:45:02.807Z,3
2017-08-20T00:50:03.303Z,3
2017-08-20T00:55:02.768Z,0
2017-08-20T01:00:03.217Z,3
2017-08-20T01:05:02.709Z,3
2017-08-20T01:10:03.167Z,8
2017-08-20T01:15:02.749Z,4
2017-08-20T01:20:03.231Z,2
2017-08-20T01:25:02.735Z,0
2017-08-20T01:30:03.292Z,3
2017-08-20T01:35:02.764Z,3
2017-08-20T01:40:03.366Z,3
2017-08-20T01:45:02.805Z,3
2017-08-20T01:50:03.375Z,3
2017-08-20T01:55:02.881Z,3
2017-08-20T02:00:03.318Z,2
2017-08-20T02:05:02.673Z,2
2017-08-20T02:10:03.278Z,3
2017-08-20T02:15:02.677Z,2
2017-08-20T02:20:03.196Z,1
2017-08-20T02:25:02.750Z,3
2017-08-20T02:30:03.230Z,3
2017-08-20T02:35:02.848Z,4
2017-08-20T02:40:03.497Z,2
2017-08-20T02:45:02.885Z,4
2017-08-20T02:50:03.487Z,6
2017-08-20T02:55:02.913Z,6
2017-08-20T03:00:03.436Z,5
2017-08-20T03:05:02.951Z,5
2017-08-20T03:10:03.484Z,4
2017-08-20T03:15:02.906Z,4
2017-08-20T03:20:03.497Z,5
2017-08-20T03:25:03.022Z,4
2017-08-20T03:30:03.457Z,3
2017-08-20T03:35:03.082Z,7
2017-08-20T03:40:03.557Z,4
2017-08-20T03:45:03.125Z,5
2017-08-20T03:50:02.548Z,7
2017-08-20T03:55:02.978Z,7
2017-08-20T04:00:03.602Z,3
2017-08-20T04:05:03.025Z,6
2017-08-20T04:10:03.536Z,4
2017-08-20T04:15:03.125Z,2
2017-08-20T04:20:02.644Z,3
2017-08-20T04:25:03.026Z,4
2017-08-20T04:30:02.597Z,2
2017-08-20T04:35:03.162Z,1
2017-08-20T04:40:02.806Z,0
2017-08-20T04:45:03.243Z,1
2017-08-20T04:50:02.558Z,2
2017-08-20T04:55:03.102Z,2
2017-08-20T05:00:03.531Z,2
2017-08-20T05:05:03.143Z,1
2017-08-20T05:10:02.653Z,3
2017-08-20T05:15:03.158Z,2
2017-08-20T05:20:02.672Z,5
2017-08-20T05:25:03.127Z,5
2017-08-20T05:30:03.543Z,4
2017-08-20T05:35:02.995Z,3
2017-08-20T05:40:03.564Z,5
2017-08-20T05:45:03.142Z,4
2017-08-20T05:50:02.781Z,6
2017-08-20T05:55:03.225Z,5
2017-08-20T06:00:02.673Z,7
2017-08-20T06:05:03.199Z,3
2017-08-20T06:10:02.670Z,7
2017-08-20T06:15:03.180Z,4
2017-08-20T06:20:02.677Z,7
2017-08-20T06:25:03.140Z,7
2017-08-20T06:30:02.611Z,7
2017-08-20T06:35:03.208Z,6
2017-08-20T06:40:02.903Z,5
2017-08-20T06:45:03.515Z,4
2017-08-20T06:50:03.130Z,6
2017-08-20T06:55:02.703Z,7
2017-08-20T07:00:03.239Z,3
2017-08-20T07:05:02.795Z,5
2017-08-20T07:10:03.180Z,6
2017-08-20T07:15:02.804Z,6
2017-08-20T07:20:03.276Z,5
2017-08-20T07:25:02.847Z,7
2017-08-20T07:30:03.456Z,6
2017-08-20T07:35:03.172Z,5
2017-08-20T07:40:02.625Z,4
2017-08-20T07:45:03.258Z,6
2017-08-20T07:50:02.669Z,4
2017-08-20T07:55:03.322Z,5
2017-08-20T08:00:02.807Z,6
2017-08-20T08:05:03.452Z,4
2017-08-20T08:10:02.941Z,3
2017-08-20T08:15:03.534Z,7
2017-08-20T08:20:02.988Z,3
2017-08-20T08:25:02.622Z,8
2017-08-20T08:30:03.074Z,4
2017-08-20T08:35:02.592Z,9
2017-08-20T08:40:03.053Z,5
2017-08-20T08:45:02.623Z,5
2017-08-20T08:50:03.239Z,9
2017-08-20T08:55:02.839Z,10
2017-08-20T09:00:03.453Z,6
2017-08-20T09:05:03.081Z,8
2017-08-20T09:10:02.665Z,8
2017-08-20T09:15:03.230Z,9
2017-08-20T09:20:02.720Z,3
2017-08-20T09:25:03.309Z,6
2017-08-20T09:30:02.865Z,8
2017-08-20T09:35:03.454Z,5
2017-08-20T09:40:03.077Z,6
2017-08-20T09:45:03.492Z,8
2017-08-20T09:50:03.018Z,7
2017-08-20T09:55:03.469Z,6
2017-08-20T10:00:03.103Z,8
2017-08-20T10:05:03.567Z,5
2017-08-20T10:10:03.072Z,8
2017-08-20T10:15:02.599Z,7
2017-08-20T10:20:03.153Z,4
2017-08-20T10:25:02.566Z,5
2017-08-20T10:30:02.978Z,7
2017-08-20T10:35:03.415Z,6
2017-08-20T10:40:02.896Z,8
2017-08-20T10:45:03.457Z,7
2017-08-20T10:50:03.030Z,6
2017-08-20T10:55:02.610Z,10
2017-08-20T11:00:03.015Z,7
2017-08-20T11:05:03.561Z,13
2017-08-20T11:10:03.017Z,5
2017-08-20T11:15:02.595Z,7
2017-08-20T11:20:03.129Z,12
2017-08-20T11:25:02.625Z,6
2017-08-20T11:30:03.090Z,6
2017-08-20T11:35:02.643Z,6
2017-08-20T11:40:03.137Z,9
2017-08-20T11:45:02.728Z,8
2017-08-20T11:50:03.181Z,4
2017-08-20T11:55:02.607Z,6
2017-08-20T12:00:03.297Z,6
2017-08-20T12:05:02.839Z,5
2017-08-20T12:10:03.434Z,9
2017-08-20T12:15:02.878Z,8
2017-08-20T12:20:03.405Z,9
2017-08-20T12:25:02.803Z,8
2017-08-20T12:30:03.232Z,7
2017-08-20T12:35:02.873Z,7
2017-08-20T12:40:03.532Z,9
2017-08-20T12:45:03.029Z,5
2017-08-20T12:50:02.562Z,7
2017-08-20T12:55:03.123Z,8
2017-08-20T13:00:03.542Z,5
2017-08-20T13:05:02.981Z,8
2017-08-20T13:10:03.537Z,8
2017-08-20T13:15:03.119Z,10
2017-08-20T13:20:02.602Z,9
2017-08-20T13:25:03.157Z,11
2017-08-20T13:30:02.735Z,10
2017-08-20T13:35:03.358Z,9
2017-08-20T13:40:02.848Z,6
2017-08-20T13:45:03.341Z,9
2017-08-20T13:50:02.788Z,6
2017-08-20T13:55:03.305Z,5
2017-08-20T14:00:02.854Z,7
2017-08-20T14:05:03.289Z,8
2017-08-20T14:10:02.884Z,6
2017-08-20T14:15:03.381Z,8
2017-08-20T14:20:02.857Z,15
2017-08-20T14:25:03.443Z,12
2017-08-20T14:30:03.010Z,10
2017-08-20T14:35:02.577Z,10
2017-08-20T14:40:03.243Z,9
2017-08-20T14:45:02.692Z,10
2017-08-20T14:50:03.227Z,8
2017-08-20T14:55:02.683Z,8
2017-08-20T15:00:03.513Z,8
2017-08-20T15:05:03.038Z,8
2017-08-20T15:10:02.706Z,8
2017-08-20T15:15:03.165Z,9
2017-08-20T15:20:02.695Z,8
2017-08-20T15:25:03.131Z,8
2017-08-20T15:30:03.574Z,7
2017-08-20T15:35:03.001Z,8
2017-08-20T15:40:02.580Z,10
2017-08-20T15:45:03.083Z,6
2017-08-20T15:50:03.530Z,8
2017-08-20T15:55:02.970Z,8
2017-08-20T16:00:03.456Z,9
2017-08-20T16:05:03.037Z,10
2017-08-20T16:10:03.547Z,8
2017-08-20T16:15:03.026Z,7
2017-08-20T16:20:02.553Z,8
2017-08-20T16:25:03.198Z,8
2017-08-20T16:30:02.751Z,6
2017-08-20T16:35:03.209Z,11
2017-08-20T16:40:02.718Z,6
2017-08-20T16:45:03.337Z,6
2017-08-20T16:50:02.868Z,6
2017-08-20T16:55:03.463Z,7
2017-08-20T17:00:03.022Z,7
2017-08-20T17:05:03.507Z,6
2017-08-20T17:10:03.170Z,8
2017-08-20T17:15:02.590Z,6
2017-08-20T17:20:03.253Z,5
2017-08-20T17:25:02.688Z,4
2017-08-20T17:30:03.132Z,5
2017-08-20T17:35:02.748Z,3
2017-08-20T17:40:03.330Z,6
2017-08-20T17:45:02.947Z,6
2017-08-20T17:50:03.570Z,5
2017-08-20T17:55:03.143Z,7
2017-08-20T18:00:02.712Z,6
2017-08-20T18:05:03.151Z,5
2017-08-20T18:10:02.855Z,5
2017-08-20T18:15:03.311Z,3
2017-08-20T18:20:02.791Z,2
2017-08-20T18:25:03.240Z,1
2017-08-20T18:30:02.832Z,0
2017-08-20T18:35:03.429Z,0
2017-08-20T18:40:02.919Z,1
2017-08-20T18:45:03.483Z,1
2017-08-20T18:50:02.984Z,0
2017-08-20T18:55:03.498Z,0
2017-08-20T19:00:03.081Z,0
2017-08-20T19:05:02.586Z,0
2017-08-20T19:10:03.071Z,0
2017-08-20T19:15:02.575Z,0
2017-08-20T19:20:03.050Z,0
2017-08-20T19:25:02.640Z,0
2017-08-20T19:30:03.127Z,0
2017-08-20T19:35:02.596Z,0
2017-08-20T19:40:03.077Z,0
2017-08-20T19:45:03.631Z,0
2017-08-20T19:50:03.192Z,0
2017-08-20T19:55:02.801Z,0
2017-08-20T20:00:03.249Z,0
2017-08-20T20:05:02.826Z,0
2017-08-20T20:10:03.503Z,0
2017-08-20T20:15:02.976Z,0
2017-08-20T20:20:03.504Z,0
2017-08-20T20:25:03.076Z,0
2017-08-20T20:30:03.482Z,0
2017-08-20T20:35:02.910Z,0
2017-08-20T20:40:03.467Z,0
2017-08-20T20:45:03.047Z,0
2017-08-20T20:50:03.544Z,0
2017-08-20T20:55:03.009Z,0
2017-08-20T21:10:02.719Z,0
2017-08-20T21:15:03.263Z,0
2017-08-20T21:20:02.717Z,0
2017-08-20T21:25:03.320Z,0
2017-08-20T21:30:02.864Z,0
2017-08-20T21:35:03.401Z,0
2017-08-20T21:40:02.901Z,0
2017-08-20T21:45:03.304Z,0
2017-08-20T21:50:02.708Z,0
2017-08-20T21:55:03.263Z,0
2017-08-20T22:00:02.795Z,0
2017-08-20T22:05:03.337Z,0
2017-08-20T22:10:02.907Z,0
2017-08-20T22:15:03.438Z,0
2017-08-20T22:20:03.067Z,0
2017-08-20T22:25:02.630Z,0
2017-08-20T22:30:03.259Z,0
2017-08-20T22:35:02.822Z,0
2017-08-20T22:40:03.405Z,0
2017-08-20T22:45:02.896Z,0
2017-08-20T22:50:03.459Z,0
2017-08-20T22:55:02.897Z,0
2017-08-20T23:00:03.638Z,0
2017-08-20T23:05:03.218Z,1
2017-08-20T23:10:02.612Z,0
2017-08-20T23:15:03.155Z,0
2017-08-20T23:20:02.637Z,0
2017-08-20T23:25:03.179Z,0
2017-08-20T23:30:02.726Z,1
2017-08-20T23:35:03.226Z,0
2017-08-20T23:40:02.827Z,0
2017-08-20T23:45:03.266Z,0
2017-08-20T23:50:02.898Z,0
2017-08-20T23:55:03.351Z,0
